sensor_id;sensor_type;location;lat;lon;timestamp;P1;durP1;ratioP1;P2;durP2;ratioP2
78156;SDS011;67400;49.360;8.266;2023-02-28T00:01:05;2.42;;;1.40;;
78156;SDS011;67400;49.360;8.266;2023-02-28T00:02:27;3.95;;;1.45;;
78156;SDS011;67400;49.360;8.266;2023-02-28T00:03:47;2.75;;;1.67;;
78156;SDS011;67400;49.360;8.266;2023-02-28T00:05:08;1.88;;;1.25;;
78156;SDS011;67400;49.360;8.266;2023-02-28T00:06:28;2.67;;;1.42;;
78156;SDS011;67400;49.360;8.266;2023-02-28T00:07:50;3.45;;;1.65;;
78156;SDS011;67400;49.360;8.266;2023-02-28T00:09:10;2.15;;;1.50;;
78156;SDS011;67400;49.360;8.266;2023-02-28T00:10:30;2.67;;;1.40;;
78156;SDS011;67400;49.360;8.266;2023-02-28T00:11:50;3.42;;;1.73;;
78156;SDS011;67400;49.360;8.266;2023-02-28T00:13:10;2.13;;;1.40;;
78156;SDS011;67400;49.360;8.266;2023-02-28T00:14:30;2.60;;;1.50;;
78156;SDS011;67400;49.360;8.266;2023-02-28T00:16:05;2.15;;;1.23;;
78156;SDS011;67400;49.360;8.266;2023-02-28T00:17:27;3.78;;;1.80;;
78156;SDS011;67400;49.360;8.266;2023-02-28T00:18:47;4.22;;;1.40;;
78156;SDS011;67400;49.360;8.266;2023-02-28T00:20:07;2.80;;;1.48;;
78156;SDS011;67400;49.360;8.266;2023-02-28T00:21:28;2.60;;;1.60;;
78156;SDS011;67400;49.360;8.266;2023-02-28T00:22:49;2.53;;;1.60;;
78156;SDS011;67400;49.360;8.266;2023-02-28T00:24:14;5.38;;;1.40;;
78156;SDS011;67400;49.360;8.266;2023-02-28T00:25:34;3.35;;;1.92;;
78156;SDS011;67400;49.360;8.266;2023-02-28T00:26:54;5.88;;;1.50;;
78156;SDS011;67400;49.360;8.266;2023-02-28T00:28:14;2.67;;;1.60;;
78156;SDS011;67400;49.360;8.266;2023-02-28T00:29:34;3.83;;;2.10;;
78156;SDS011;67400;49.360;8.266;2023-02-28T00:30:53;6.53;;;1.60;;
78156;SDS011;67400;49.360;8.266;2023-02-28T00:32:14;3.95;;;1.83;;
78156;SDS011;67400;49.360;8.266;2023-02-28T00:33:33;3.00;;;1.77;;
78156;SDS011;67400;49.360;8.266;2023-02-28T00:34:56;5.00;;;1.60;;
78156;SDS011;67400;49.360;8.266;2023-02-28T00:36:16;3.42;;;1.55;;
78156;SDS011;67400;49.360;8.266;2023-02-28T00:37:36;5.13;;;1.50;;
78156;SDS011;67400;49.360;8.266;2023-02-28T00:39:01;4.63;;;1.60;;
78156;SDS011;67400;49.360;8.266;2023-02-28T00:40:21;4.65;;;1.73;;
78156;SDS011;67400;49.360;8.266;2023-02-28T00:41:43;2.67;;;1.60;;
78156;SDS011;67400;49.360;8.266;2023-02-28T00:43:03;3.08;;;1.77;;
78156;SDS011;67400;49.360;8.266;2023-02-28T00:44:25;3.55;;;1.85;;
78156;SDS011;67400;49.360;8.266;2023-02-28T00:45:54;3.58;;;1.73;;
78156;SDS011;67400;49.360;8.266;2023-02-28T00:47:13;3.67;;;1.80;;
78156;SDS011;67400;49.360;8.266;2023-02-28T00:48:33;4.45;;;1.88;;
78156;SDS011;67400;49.360;8.266;2023-02-28T00:49:53;2.03;;;1.50;;
78156;SDS011;67400;49.360;8.266;2023-02-28T00:51:13;4.00;;;1.67;;
78156;SDS011;67400;49.360;8.266;2023-02-28T00:52:33;3.38;;;1.90;;
78156;SDS011;67400;49.360;8.266;2023-02-28T00:53:52;2.42;;;1.60;;
78156;SDS011;67400;49.360;8.266;2023-02-28T00:55:13;4.90;;;1.52;;
78156;SDS011;67400;49.360;8.266;2023-02-28T00:56:35;3.17;;;1.90;;
78156;SDS011;67400;49.360;8.266;2023-02-28T00:57:56;4.13;;;2.22;;
78156;SDS011;67400;49.360;8.266;2023-02-28T00:59:20;1.80;;;1.45;;
78156;SDS011;67400;49.360;8.266;2023-02-28T01:00:45;3.30;;;1.50;;
78156;SDS011;67400;49.360;8.266;2023-02-28T01:02:11;2.00;;;1.42;;
78156;SDS011;67400;49.360;8.266;2023-02-28T01:03:37;3.08;;;1.77;;
78156;SDS011;67400;49.360;8.266;2023-02-28T01:04:58;3.33;;;1.70;;
78156;SDS011;67400;49.360;8.266;2023-02-28T01:06:21;2.50;;;1.40;;
78156;SDS011;67400;49.360;8.266;2023-02-28T01:07:45;2.30;;;1.55;;
78156;SDS011;67400;49.360;8.266;2023-02-28T01:09:05;4.35;;;2.10;;
78156;SDS011;67400;49.360;8.266;2023-02-28T01:10:27;2.35;;;1.73;;
78156;SDS011;67400;49.360;8.266;2023-02-28T01:11:50;4.07;;;2.10;;
78156;SDS011;67400;49.360;8.266;2023-02-28T01:13:24;3.08;;;1.42;;
78156;SDS011;67400;49.360;8.266;2023-02-28T01:14:44;2.58;;;1.52;;
78156;SDS011;67400;49.360;8.266;2023-02-28T01:16:07;3.25;;;1.70;;
78156;SDS011;67400;49.360;8.266;2023-02-28T01:17:33;2.28;;;1.30;;
78156;SDS011;67400;49.360;8.266;2023-02-28T01:18:56;2.55;;;1.58;;
78156;SDS011;67400;49.360;8.266;2023-02-28T01:20:16;5.80;;;1.98;;
78156;SDS011;67400;49.360;8.266;2023-02-28T01:21:36;6.97;;;1.90;;
78156;SDS011;67400;49.360;8.266;2023-02-28T01:22:58;2.20;;;1.50;;
78156;SDS011;67400;49.360;8.266;2023-02-28T01:24:20;3.33;;;1.85;;
78156;SDS011;67400;49.360;8.266;2023-02-28T01:25:40;4.40;;;2.38;;
78156;SDS011;67400;49.360;8.266;2023-02-28T01:26:59;3.45;;;1.98;;
78156;SDS011;67400;49.360;8.266;2023-02-28T01:28:22;3.88;;;1.83;;
78156;SDS011;67400;49.360;8.266;2023-02-28T01:29:45;3.88;;;2.08;;
78156;SDS011;67400;49.360;8.266;2023-02-28T01:31:08;4.38;;;1.75;;
78156;SDS011;67400;49.360;8.266;2023-02-28T01:32:30;3.03;;;1.80;;
78156;SDS011;67400;49.360;8.266;2023-02-28T01:33:50;4.53;;;2.38;;
78156;SDS011;67400;49.360;8.266;2023-02-28T01:35:13;3.28;;;2.15;;
78156;SDS011;67400;49.360;8.266;2023-02-28T01:36:35;6.00;;;2.10;;
78156;SDS011;67400;49.360;8.266;2023-02-28T01:37:56;4.57;;;2.50;;
78156;SDS011;67400;49.360;8.266;2023-02-28T01:39:19;2.80;;;1.70;;
78156;SDS011;67400;49.360;8.266;2023-02-28T01:41:35;3.28;;;2.00;;
78156;SDS011;67400;49.360;8.266;2023-02-28T01:43:28;3.75;;;1.88;;
78156;SDS011;67400;49.360;8.266;2023-02-28T02:00:48;2.53;;;1.80;;
78156;SDS011;67400;49.360;8.266;2023-02-28T02:02:25;4.22;;;2.38;;
78156;SDS011;67400;49.360;8.266;2023-02-28T02:03:57;5.32;;;2.22;;
78156;SDS011;67400;49.360;8.266;2023-02-28T02:06:10;4.60;;;1.90;;
78156;SDS011;67400;49.360;8.266;2023-02-28T02:07:57;2.75;;;1.63;;
78156;SDS011;67400;49.360;8.266;2023-02-28T02:09:22;5.60;;;2.10;;
78156;SDS011;67400;49.360;8.266;2023-02-28T02:12:05;3.25;;;2.33;;
78156;SDS011;67400;49.360;8.266;2023-02-28T02:17:47;5.50;;;2.20;;
78156;SDS011;67400;49.360;8.266;2023-02-28T02:19:46;4.80;;;2.38;;
78156;SDS011;67400;49.360;8.266;2023-02-28T02:27:22;5.45;;;2.40;;
78156;SDS011;67400;49.360;8.266;2023-02-28T02:28:53;3.75;;;2.30;;
78156;SDS011;67400;49.360;8.266;2023-02-28T02:34:31;6.13;;;2.42;;
78156;SDS011;67400;49.360;8.266;2023-02-28T02:36:30;3.72;;;2.40;;
78156;SDS011;67400;49.360;8.266;2023-02-28T02:37:59;6.30;;;2.72;;
78156;SDS011;67400;49.360;8.266;2023-02-28T02:43:04;5.88;;;2.28;;
78156;SDS011;67400;49.360;8.266;2023-02-28T02:44:31;6.07;;;3.33;;
78156;SDS011;67400;49.360;8.266;2023-02-28T02:45:54;6.22;;;2.47;;
78156;SDS011;67400;49.360;8.266;2023-02-28T02:47:18;4.35;;;2.90;;
78156;SDS011;67400;49.360;8.266;2023-02-28T02:48:42;5.60;;;3.35;;
78156;SDS011;67400;49.360;8.266;2023-02-28T02:50:14;3.13;;;2.35;;
78156;SDS011;67400;49.360;8.266;2023-02-28T02:51:44;4.85;;;2.35;;
78156;SDS011;67400;49.360;8.266;2023-02-28T02:53:06;4.82;;;2.50;;
78156;SDS011;67400;49.360;8.266;2023-02-28T02:54:36;6.03;;;2.90;;
78156;SDS011;67400;49.360;8.266;2023-02-28T02:55:59;4.65;;;2.83;;
78156;SDS011;67400;49.360;8.266;2023-02-28T02:57:36;6.30;;;3.47;;
78156;SDS011;67400;49.360;8.266;2023-02-28T02:59:06;5.10;;;3.05;;
78156;SDS011;67400;49.360;8.266;2023-02-28T03:00:35;6.00;;;2.97;;
78156;SDS011;67400;49.360;8.266;2023-02-28T03:02:03;6.70;;;2.88;;
78156;SDS011;67400;49.360;8.266;2023-02-28T03:03:23;3.92;;;2.40;;
78156;SDS011;67400;49.360;8.266;2023-02-28T03:04:53;5.53;;;2.60;;
78156;SDS011;67400;49.360;8.266;2023-02-28T03:06:19;9.13;;;4.65;;
78156;SDS011;67400;49.360;8.266;2023-02-28T03:07:40;20.10;;;8.73;;
78156;SDS011;67400;49.360;8.266;2023-02-28T03:09:00;56.45;;;17.45;;
78156;SDS011;67400;49.360;8.266;2023-02-28T03:11:52;37.40;;;14.27;;
78156;SDS011;67400;49.360;8.266;2023-02-28T03:13:30;16.35;;;7.13;;
78156;SDS011;67400;49.360;8.266;2023-02-28T03:14:59;8.32;;;3.97;;
78156;SDS011;67400;49.360;8.266;2023-02-28T03:16:35;4.60;;;3.38;;
78156;SDS011;67400;49.360;8.266;2023-02-28T03:25:16;4.85;;;2.97;;
78156;SDS011;67400;49.360;8.266;2023-02-28T03:26:39;4.90;;;2.90;;
78156;SDS011;67400;49.360;8.266;2023-02-28T03:28:07;4.28;;;2.72;;
78156;SDS011;67400;49.360;8.266;2023-02-28T03:29:39;4.13;;;2.83;;
78156;SDS011;67400;49.360;8.266;2023-02-28T03:32:26;5.53;;;3.15;;
78156;SDS011;67400;49.360;8.266;2023-02-28T03:33:55;5.60;;;3.03;;
78156;SDS011;67400;49.360;8.266;2023-02-28T03:35:22;5.82;;;3.33;;
78156;SDS011;67400;49.360;8.266;2023-02-28T03:36:44;6.97;;;3.92;;
78156;SDS011;67400;49.360;8.266;2023-02-28T03:38:15;8.85;;;4.45;;
78156;SDS011;67400;49.360;8.266;2023-02-28T03:39:38;7.97;;;4.10;;
78156;SDS011;67400;49.360;8.266;2023-02-28T03:41:06;9.65;;;4.70;;
78156;SDS011;67400;49.360;8.266;2023-02-28T03:42:29;9.57;;;4.50;;
78156;SDS011;67400;49.360;8.266;2023-02-28T03:43:53;9.45;;;4.82;;
78156;SDS011;67400;49.360;8.266;2023-02-28T03:45:15;8.02;;;4.25;;
78156;SDS011;67400;49.360;8.266;2023-02-28T03:46:36;12.77;;;4.55;;
78156;SDS011;67400;49.360;8.266;2023-02-28T03:48:02;8.02;;;4.15;;
78156;SDS011;67400;49.360;8.266;2023-02-28T03:49:22;6.70;;;4.22;;
78156;SDS011;67400;49.360;8.266;2023-02-28T03:50:44;8.30;;;4.15;;
78156;SDS011;67400;49.360;8.266;2023-02-28T03:52:06;7.28;;;4.45;;
78156;SDS011;67400;49.360;8.266;2023-02-28T03:53:30;9.35;;;3.80;;
78156;SDS011;67400;49.360;8.266;2023-02-28T03:54:52;11.85;;;3.97;;
78156;SDS011;67400;49.360;8.266;2023-02-28T03:59:39;6.15;;;3.38;;
78156;SDS011;67400;49.360;8.266;2023-02-28T04:01:03;5.05;;;2.67;;
78156;SDS011;67400;49.360;8.266;2023-02-28T04:02:27;7.75;;;2.80;;
78156;SDS011;67400;49.360;8.266;2023-02-28T04:03:47;6.75;;;2.95;;
78156;SDS011;67400;49.360;8.266;2023-02-28T04:05:07;6.85;;;2.90;;
78156;SDS011;67400;49.360;8.266;2023-02-28T04:06:26;5.38;;;3.25;;
78156;SDS011;67400;49.360;8.266;2023-02-28T04:07:46;5.82;;;2.90;;
78156;SDS011;67400;49.360;8.266;2023-02-28T04:09:07;4.10;;;2.55;;
78156;SDS011;67400;49.360;8.266;2023-02-28T04:10:28;5.35;;;2.60;;
78156;SDS011;67400;49.360;8.266;2023-02-28T04:11:51;4.63;;;2.70;;
78156;SDS011;67400;49.360;8.266;2023-02-28T04:13:11;6.57;;;2.75;;
78156;SDS011;67400;49.360;8.266;2023-02-28T04:14:31;8.50;;;3.10;;
78156;SDS011;67400;49.360;8.266;2023-02-28T04:15:51;6.18;;;3.30;;
78156;SDS011;67400;49.360;8.266;2023-02-28T04:17:10;4.95;;;2.97;;
78156;SDS011;67400;49.360;8.266;2023-02-28T04:18:30;6.65;;;3.30;;
78156;SDS011;67400;49.360;8.266;2023-02-28T04:19:50;6.10;;;3.03;;
78156;SDS011;67400;49.360;8.266;2023-02-28T04:21:10;5.18;;;2.95;;
78156;SDS011;67400;49.360;8.266;2023-02-28T04:22:30;11.15;;;3.00;;
78156;SDS011;67400;49.360;8.266;2023-02-28T04:23:50;6.35;;;2.60;;
78156;SDS011;67400;49.360;8.266;2023-02-28T04:25:09;5.78;;;2.72;;
78156;SDS011;67400;49.360;8.266;2023-02-28T04:26:30;6.95;;;2.97;;
78156;SDS011;67400;49.360;8.266;2023-02-28T04:27:50;7.07;;;3.03;;
78156;SDS011;67400;49.360;8.266;2023-02-28T04:29:10;5.93;;;3.28;;
78156;SDS011;67400;49.360;8.266;2023-02-28T04:30:29;4.25;;;2.42;;
78156;SDS011;67400;49.360;8.266;2023-02-28T04:31:51;5.45;;;2.83;;
78156;SDS011;67400;49.360;8.266;2023-02-28T04:33:11;5.55;;;2.88;;
78156;SDS011;67400;49.360;8.266;2023-02-28T04:34:31;3.13;;;2.20;;
78156;SDS011;67400;49.360;8.266;2023-02-28T04:35:58;8.55;;;3.63;;
78156;SDS011;67400;49.360;8.266;2023-02-28T04:37:18;3.97;;;2.42;;
78156;SDS011;67400;49.360;8.266;2023-02-28T04:38:38;4.97;;;2.83;;
78156;SDS011;67400;49.360;8.266;2023-02-28T04:39:58;7.03;;;3.15;;
78156;SDS011;67400;49.360;8.266;2023-02-28T04:41:18;5.30;;;3.25;;
78156;SDS011;67400;49.360;8.266;2023-02-28T04:42:38;6.55;;;3.17;;
78156;SDS011;67400;49.360;8.266;2023-02-28T04:43:58;4.97;;;2.97;;
78156;SDS011;67400;49.360;8.266;2023-02-28T04:45:17;4.18;;;2.60;;
78156;SDS011;67400;49.360;8.266;2023-02-28T04:46:37;6.68;;;3.17;;
78156;SDS011;67400;49.360;8.266;2023-02-28T04:47:57;5.72;;;2.80;;
78156;SDS011;67400;49.360;8.266;2023-02-28T04:49:16;5.97;;;3.30;;
78156;SDS011;67400;49.360;8.266;2023-02-28T04:50:36;5.57;;;2.90;;
78156;SDS011;67400;49.360;8.266;2023-02-28T04:51:56;7.72;;;3.25;;
78156;SDS011;67400;49.360;8.266;2023-02-28T04:53:16;7.13;;;3.13;;
78156;SDS011;67400;49.360;8.266;2023-02-28T04:54:35;6.57;;;2.92;;
78156;SDS011;67400;49.360;8.266;2023-02-28T04:55:57;6.50;;;3.03;;
78156;SDS011;67400;49.360;8.266;2023-02-28T04:57:17;4.65;;;2.58;;
78156;SDS011;67400;49.360;8.266;2023-02-28T04:58:36;4.60;;;3.10;;
78156;SDS011;67400;49.360;8.266;2023-02-28T04:59:56;3.70;;;2.50;;
78156;SDS011;67400;49.360;8.266;2023-02-28T05:01:17;4.95;;;2.45;;
78156;SDS011;67400;49.360;8.266;2023-02-28T05:02:37;6.93;;;3.25;;
78156;SDS011;67400;49.360;8.266;2023-02-28T05:03:58;8.68;;;2.97;;
78156;SDS011;67400;49.360;8.266;2023-02-28T05:05:18;3.40;;;2.38;;
78156;SDS011;67400;49.360;8.266;2023-02-28T05:06:38;4.50;;;2.53;;
78156;SDS011;67400;49.360;8.266;2023-02-28T05:07:57;6.10;;;3.15;;
78156;SDS011;67400;49.360;8.266;2023-02-28T05:09:17;6.53;;;3.40;;
78156;SDS011;67400;49.360;8.266;2023-02-28T05:10:37;5.47;;;2.70;;
78156;SDS011;67400;49.360;8.266;2023-02-28T05:11:56;6.00;;;2.92;;
78156;SDS011;67400;49.360;8.266;2023-02-28T05:13:16;6.22;;;3.28;;
78156;SDS011;67400;49.360;8.266;2023-02-28T05:14:36;8.02;;;3.90;;
78156;SDS011;67400;49.360;8.266;2023-02-28T05:15:56;6.50;;;3.67;;
78156;SDS011;67400;49.360;8.266;2023-02-28T05:17:16;5.85;;;3.05;;
78156;SDS011;67400;49.360;8.266;2023-02-28T05:18:36;5.80;;;2.72;;
78156;SDS011;67400;49.360;8.266;2023-02-28T05:19:55;4.10;;;2.85;;
78156;SDS011;67400;49.360;8.266;2023-02-28T05:21:22;5.18;;;3.25;;
78156;SDS011;67400;49.360;8.266;2023-02-28T05:22:43;5.93;;;2.90;;
78156;SDS011;67400;49.360;8.266;2023-02-28T05:24:04;4.70;;;2.60;;
78156;SDS011;67400;49.360;8.266;2023-02-28T05:25:24;4.25;;;3.00;;
78156;SDS011;67400;49.360;8.266;2023-02-28T05:26:44;6.45;;;3.20;;
78156;SDS011;67400;49.360;8.266;2023-02-28T05:28:04;5.15;;;3.08;;
78156;SDS011;67400;49.360;8.266;2023-02-28T05:29:24;5.20;;;3.13;;
78156;SDS011;67400;49.360;8.266;2023-02-28T05:30:43;4.68;;;3.15;;
78156;SDS011;67400;49.360;8.266;2023-02-28T05:32:03;5.13;;;3.08;;
78156;SDS011;67400;49.360;8.266;2023-02-28T05:33:23;6.18;;;3.30;;
78156;SDS011;67400;49.360;8.266;2023-02-28T05:34:43;6.75;;;3.53;;
78156;SDS011;67400;49.360;8.266;2023-02-28T05:36:03;7.80;;;3.38;;
78156;SDS011;67400;49.360;8.266;2023-02-28T05:37:23;8.98;;;3.72;;
78156;SDS011;67400;49.360;8.266;2023-02-28T05:38:43;3.97;;;2.90;;
78156;SDS011;67400;49.360;8.266;2023-02-28T05:40:02;4.32;;;2.67;;
78156;SDS011;67400;49.360;8.266;2023-02-28T05:41:24;5.32;;;3.20;;
78156;SDS011;67400;49.360;8.266;2023-02-28T05:42:44;6.32;;;3.05;;
78156;SDS011;67400;49.360;8.266;2023-02-28T05:44:04;7.18;;;2.92;;
78156;SDS011;67400;49.360;8.266;2023-02-28T05:45:24;5.97;;;2.75;;
78156;SDS011;67400;49.360;8.266;2023-02-28T05:46:44;7.15;;;2.63;;
78156;SDS011;67400;49.360;8.266;2023-02-28T05:48:03;5.85;;;2.95;;
78156;SDS011;67400;49.360;8.266;2023-02-28T05:49:23;6.18;;;2.83;;
78156;SDS011;67400;49.360;8.266;2023-02-28T05:50:43;4.63;;;2.72;;
78156;SDS011;67400;49.360;8.266;2023-02-28T05:52:04;7.72;;;3.30;;
78156;SDS011;67400;49.360;8.266;2023-02-28T05:53:24;4.20;;;2.72;;
78156;SDS011;67400;49.360;8.266;2023-02-28T05:54:45;4.03;;;3.10;;
78156;SDS011;67400;49.360;8.266;2023-02-28T05:56:05;5.85;;;3.05;;
78156;SDS011;67400;49.360;8.266;2023-02-28T05:57:25;4.82;;;2.90;;
78156;SDS011;67400;49.360;8.266;2023-02-28T05:58:44;5.03;;;3.30;;
78156;SDS011;67400;49.360;8.266;2023-02-28T06:00:05;6.00;;;3.25;;
78156;SDS011;67400;49.360;8.266;2023-02-28T06:01:48;6.95;;;3.40;;
78156;SDS011;67400;49.360;8.266;2023-02-28T06:03:08;12.30;;;4.88;;
78156;SDS011;67400;49.360;8.266;2023-02-28T06:04:27;8.25;;;3.88;;
78156;SDS011;67400;49.360;8.266;2023-02-28T06:05:47;10.23;;;6.30;;
78156;SDS011;67400;49.360;8.266;2023-02-28T06:07:07;6.75;;;3.92;;
78156;SDS011;67400;49.360;8.266;2023-02-28T06:08:26;5.13;;;2.92;;
78156;SDS011;67400;49.360;8.266;2023-02-28T06:09:46;6.05;;;3.13;;
78156;SDS011;67400;49.360;8.266;2023-02-28T06:11:06;9.70;;;3.70;;
78156;SDS011;67400;49.360;8.266;2023-02-28T06:12:26;8.07;;;3.47;;
78156;SDS011;67400;49.360;8.266;2023-02-28T06:13:46;5.60;;;3.78;;
78156;SDS011;67400;49.360;8.266;2023-02-28T06:15:06;6.75;;;3.70;;
78156;SDS011;67400;49.360;8.266;2023-02-28T06:16:26;8.20;;;3.90;;
78156;SDS011;67400;49.360;8.266;2023-02-28T06:17:46;7.70;;;4.05;;
78156;SDS011;67400;49.360;8.266;2023-02-28T06:19:06;7.75;;;4.10;;
78156;SDS011;67400;49.360;8.266;2023-02-28T06:20:26;9.32;;;3.78;;
78156;SDS011;67400;49.360;8.266;2023-02-28T06:21:49;5.20;;;3.03;;
78156;SDS011;67400;49.360;8.266;2023-02-28T06:23:10;5.60;;;3.17;;
78156;SDS011;67400;49.360;8.266;2023-02-28T06:24:30;8.07;;;3.63;;
78156;SDS011;67400;49.360;8.266;2023-02-28T06:25:50;5.25;;;3.53;;
78156;SDS011;67400;49.360;8.266;2023-02-28T06:27:11;5.53;;;3.22;;
78156;SDS011;67400;49.360;8.266;2023-02-28T06:28:31;7.18;;;3.65;;
78156;SDS011;67400;49.360;8.266;2023-02-28T06:29:53;6.60;;;3.35;;
78156;SDS011;67400;49.360;8.266;2023-02-28T06:31:15;7.90;;;3.40;;
78156;SDS011;67400;49.360;8.266;2023-02-28T06:32:35;9.77;;;3.35;;
78156;SDS011;67400;49.360;8.266;2023-02-28T06:33:54;7.45;;;4.25;;
78156;SDS011;67400;49.360;8.266;2023-02-28T06:35:14;7.80;;;4.00;;
78156;SDS011;67400;49.360;8.266;2023-02-28T06:36:34;6.63;;;3.72;;
78156;SDS011;67400;49.360;8.266;2023-02-28T06:37:54;6.10;;;3.45;;
78156;SDS011;67400;49.360;8.266;2023-02-28T06:39:14;5.13;;;3.22;;
78156;SDS011;67400;49.360;8.266;2023-02-28T06:40:34;5.82;;;3.70;;
78156;SDS011;67400;49.360;8.266;2023-02-28T06:41:56;6.25;;;3.30;;
78156;SDS011;67400;49.360;8.266;2023-02-28T06:43:16;5.20;;;3.50;;
78156;SDS011;67400;49.360;8.266;2023-02-28T06:44:36;6.80;;;2.75;;
78156;SDS011;67400;49.360;8.266;2023-02-28T06:45:57;8.90;;;3.45;;
78156;SDS011;67400;49.360;8.266;2023-02-28T06:47:18;7.60;;;3.63;;
78156;SDS011;67400;49.360;8.266;2023-02-28T06:48:38;7.18;;;3.50;;
78156;SDS011;67400;49.360;8.266;2023-02-28T06:49:57;5.50;;;3.50;;
78156;SDS011;67400;49.360;8.266;2023-02-28T06:51:20;6.15;;;3.78;;
78156;SDS011;67400;49.360;8.266;2023-02-28T06:52:41;8.27;;;3.65;;
78156;SDS011;67400;49.360;8.266;2023-02-28T06:54:00;8.38;;;3.40;;
78156;SDS011;67400;49.360;8.266;2023-02-28T06:55:20;6.53;;;3.92;;
78156;SDS011;67400;49.360;8.266;2023-02-28T06:56:40;6.82;;;3.25;;
78156;SDS011;67400;49.360;8.266;2023-02-28T06:58:01;7.22;;;3.83;;
78156;SDS011;67400;49.360;8.266;2023-02-28T06:59:21;7.95;;;4.10;;
78156;SDS011;67400;49.360;8.266;2023-02-28T07:00:41;6.95;;;4.28;;
78156;SDS011;67400;49.360;8.266;2023-02-28T07:02:02;7.97;;;3.58;;
78156;SDS011;67400;49.360;8.266;2023-02-28T07:03:21;8.27;;;3.95;;
78156;SDS011;67400;49.360;8.266;2023-02-28T07:04:44;10.63;;;4.40;;
78156;SDS011;67400;49.360;8.266;2023-02-28T07:06:04;6.47;;;3.88;;
78156;SDS011;67400;49.360;8.266;2023-02-28T07:07:24;8.75;;;3.78;;
78156;SDS011;67400;49.360;8.266;2023-02-28T07:08:44;10.80;;;4.35;;
78156;SDS011;67400;49.360;8.266;2023-02-28T07:10:03;10.13;;;4.00;;
78156;SDS011;67400;49.360;8.266;2023-02-28T07:11:27;9.50;;;4.13;;
78156;SDS011;67400;49.360;8.266;2023-02-28T07:12:46;10.18;;;4.25;;
78156;SDS011;67400;49.360;8.266;2023-02-28T07:14:06;8.82;;;4.80;;
78156;SDS011;67400;49.360;8.266;2023-02-28T07:15:26;12.05;;;3.75;;
78156;SDS011;67400;49.360;8.266;2023-02-28T07:16:45;11.60;;;4.38;;
78156;SDS011;67400;49.360;8.266;2023-02-28T07:18:05;8.85;;;3.75;;
78156;SDS011;67400;49.360;8.266;2023-02-28T07:19:27;8.10;;;4.22;;
78156;SDS011;67400;49.360;8.266;2023-02-28T07:20:46;15.65;;;5.85;;
78156;SDS011;67400;49.360;8.266;2023-02-28T07:22:06;16.60;;;6.78;;
78156;SDS011;67400;49.360;8.266;2023-02-28T07:23:26;11.45;;;5.55;;
78156;SDS011;67400;49.360;8.266;2023-02-28T07:24:53;16.63;;;4.70;;
78156;SDS011;67400;49.360;8.266;2023-02-28T07:26:14;10.07;;;4.20;;
78156;SDS011;67400;49.360;8.266;2023-02-28T07:27:35;5.63;;;3.55;;
78156;SDS011;67400;49.360;8.266;2023-02-28T07:29:04;6.95;;;4.28;;
78156;SDS011;67400;49.360;8.266;2023-02-28T07:30:33;6.93;;;3.42;;
78156;SDS011;67400;49.360;8.266;2023-02-28T07:32:04;5.90;;;3.45;;
78156;SDS011;67400;49.360;8.266;2023-02-28T07:33:49;7.43;;;4.10;;
78156;SDS011;67400;49.360;8.266;2023-02-28T07:35:21;11.73;;;4.53;;
78156;SDS011;67400;49.360;8.266;2023-02-28T07:36:51;8.10;;;4.25;;
78156;SDS011;67400;49.360;8.266;2023-02-28T07:38:22;7.97;;;4.40;;
78156;SDS011;67400;49.360;8.266;2023-02-28T07:39:48;8.70;;;4.40;;
78156;SDS011;67400;49.360;8.266;2023-02-28T07:41:13;7.22;;;4.15;;
78156;SDS011;67400;49.360;8.266;2023-02-28T07:42:38;7.70;;;4.15;;
78156;SDS011;67400;49.360;8.266;2023-02-28T07:43:57;6.38;;;4.47;;
78156;SDS011;67400;49.360;8.266;2023-02-28T07:45:18;8.90;;;4.53;;
78156;SDS011;67400;49.360;8.266;2023-02-28T07:46:38;9.13;;;4.90;;
78156;SDS011;67400;49.360;8.266;2023-02-28T07:47:57;6.00;;;3.58;;
78156;SDS011;67400;49.360;8.266;2023-02-28T07:49:17;6.82;;;4.28;;
78156;SDS011;67400;49.360;8.266;2023-02-28T07:50:37;7.70;;;4.03;;
78156;SDS011;67400;49.360;8.266;2023-02-28T07:51:57;9.52;;;5.07;;
78156;SDS011;67400;49.360;8.266;2023-02-28T07:53:16;7.40;;;4.90;;
78156;SDS011;67400;49.360;8.266;2023-02-28T07:54:36;8.48;;;5.07;;
78156;SDS011;67400;49.360;8.266;2023-02-28T07:55:56;9.20;;;5.63;;
78156;SDS011;67400;49.360;8.266;2023-02-28T07:57:16;12.55;;;5.93;;
78156;SDS011;67400;49.360;8.266;2023-02-28T07:58:36;20.23;;;10.68;;
78156;SDS011;67400;49.360;8.266;2023-02-28T07:59:56;14.38;;;6.82;;
78156;SDS011;67400;49.360;8.266;2023-02-28T08:01:16;7.95;;;5.13;;
78156;SDS011;67400;49.360;8.266;2023-02-28T08:02:37;12.80;;;6.55;;
78156;SDS011;67400;49.360;8.266;2023-02-28T08:03:56;9.18;;;4.97;;
78156;SDS011;67400;49.360;8.266;2023-02-28T08:05:16;8.95;;;4.65;;
78156;SDS011;67400;49.360;8.266;2023-02-28T08:06:36;9.48;;;5.70;;
78156;SDS011;67400;49.360;8.266;2023-02-28T08:07:56;10.48;;;5.90;;
78156;SDS011;67400;49.360;8.266;2023-02-28T08:09:15;9.43;;;4.88;;
78156;SDS011;67400;49.360;8.266;2023-02-28T08:10:35;7.68;;;4.93;;
78156;SDS011;67400;49.360;8.266;2023-02-28T08:11:55;7.93;;;4.35;;
78156;SDS011;67400;49.360;8.266;2023-02-28T08:13:14;8.30;;;4.20;;
78156;SDS011;67400;49.360;8.266;2023-02-28T08:14:34;6.78;;;3.97;;
78156;SDS011;67400;49.360;8.266;2023-02-28T08:15:54;8.35;;;4.57;;
78156;SDS011;67400;49.360;8.266;2023-02-28T08:17:14;9.82;;;4.90;;
78156;SDS011;67400;49.360;8.266;2023-02-28T08:18:37;8.20;;;4.40;;
78156;SDS011;67400;49.360;8.266;2023-02-28T08:20:14;7.82;;;4.32;;
78156;SDS011;67400;49.360;8.266;2023-02-28T08:21:33;8.77;;;4.57;;
78156;SDS011;67400;49.360;8.266;2023-02-28T08:22:53;7.82;;;4.40;;
78156;SDS011;67400;49.360;8.266;2023-02-28T08:24:15;9.68;;;4.15;;
78156;SDS011;67400;49.360;8.266;2023-02-28T08:25:35;12.23;;;4.78;;
78156;SDS011;67400;49.360;8.266;2023-02-28T08:26:55;6.93;;;4.15;;
78156;SDS011;67400;49.360;8.266;2023-02-28T08:28:17;11.02;;;5.32;;
78156;SDS011;67400;49.360;8.266;2023-02-28T08:29:42;8.65;;;4.22;;
78156;SDS011;67400;49.360;8.266;2023-02-28T08:31:10;13.63;;;4.07;;
78156;SDS011;67400;49.360;8.266;2023-02-28T08:32:30;8.43;;;4.03;;
78156;SDS011;67400;49.360;8.266;2023-02-28T08:33:51;7.80;;;4.78;;
78156;SDS011;67400;49.360;8.266;2023-02-28T08:35:17;11.02;;;4.10;;
78156;SDS011;67400;49.360;8.266;2023-02-28T08:36:37;7.00;;;4.25;;
78156;SDS011;67400;49.360;8.266;2023-02-28T08:37:57;7.05;;;3.80;;
78156;SDS011;67400;49.360;8.266;2023-02-28T08:39:17;7.47;;;4.45;;
78156;SDS011;67400;49.360;8.266;2023-02-28T08:40:38;8.90;;;4.25;;
78156;SDS011;67400;49.360;8.266;2023-02-28T08:41:59;7.97;;;4.65;;
78156;SDS011;67400;49.360;8.266;2023-02-28T08:43:19;8.15;;;4.15;;
78156;SDS011;67400;49.360;8.266;2023-02-28T08:44:38;9.10;;;4.78;;
78156;SDS011;67400;49.360;8.266;2023-02-28T08:45:59;8.55;;;4.75;;
78156;SDS011;67400;49.360;8.266;2023-02-28T08:47:19;9.95;;;4.78;;
78156;SDS011;67400;49.360;8.266;2023-02-28T08:48:45;5.60;;;3.92;;
78156;SDS011;67400;49.360;8.266;2023-02-28T08:50:42;6.53;;;4.00;;
78156;SDS011;67400;49.360;8.266;2023-02-28T08:52:06;7.97;;;4.53;;
78156;SDS011;67400;49.360;8.266;2023-02-28T08:53:59;9.50;;;4.72;;
78156;SDS011;67400;49.360;8.266;2023-02-28T08:58:41;7.72;;;4.60;;
78156;SDS011;67400;49.360;8.266;2023-02-28T09:00:21;6.63;;;4.35;;
78156;SDS011;67400;49.360;8.266;2023-02-28T09:02:15;6.93;;;4.35;;
78156;SDS011;67400;49.360;8.266;2023-02-28T09:04:25;7.50;;;4.20;;
78156;SDS011;67400;49.360;8.266;2023-02-28T09:05:58;7.38;;;4.50;;
78156;SDS011;67400;49.360;8.266;2023-02-28T09:07:18;8.98;;;5.00;;
78156;SDS011;67400;49.360;8.266;2023-02-28T09:08:37;7.28;;;4.55;;
78156;SDS011;67400;49.360;8.266;2023-02-28T09:09:58;7.45;;;4.75;;
78156;SDS011;67400;49.360;8.266;2023-02-28T09:11:18;8.40;;;4.30;;
78156;SDS011;67400;49.360;8.266;2023-02-28T09:12:37;7.13;;;4.53;;